Deerbrook, Mississippi
Current Conditions -  °F | °C
As of 10:50 AM on Friday 28 Nov 2014 (Local Time) from KGTR Reporting Station
Clear Clear  
Wind Chill: 41°   Ceiling: Unl
Heat Index: 45°   Visibility: 10mi
Dew Point: 28°   Wind: 7mph
Humidity: 53%   Direction: 120°ESE
Pressure: 30.42"   Gusts: NA
Location:  33.2136°N, 88.5275°W
Report Text: KGTR 281650Z 12006KT 10SM SKC 07/M02 A3042
Loading
Personal Weather Stations






























Interactive Weather Map New forecast layout! Learn more

10-Day Weather Forecast

Advertisements
Track Severe Weather on mobile